createdAt,value
2024-04-30T00:02:19.592Z,85.45
2024-04-30T00:04:47.579Z,85.77
2024-04-30T00:07:16.657Z,84.96
2024-04-30T00:09:45.724Z,86.37
2024-04-30T00:12:14.734Z,86.27
2024-04-30T00:14:42.803Z,86.06
2024-04-30T00:17:10.780Z,86.05
2024-04-30T00:19:41.456Z,86.50
2024-04-30T00:22:09.730Z,86.37
2024-04-30T00:24:37.751Z,86.13
2024-04-30T00:27:05.722Z,86.00
2024-04-30T00:29:34.102Z,85.38
2024-04-30T00:32:02.186Z,85.77
2024-04-30T00:34:30.293Z,85.65
2024-04-30T00:36:58.431Z,85.54
2024-04-30T00:39:26.502Z,85.24
2024-04-30T00:41:54.661Z,85.96
2024-04-30T00:44:23.356Z,84.01
2024-04-30T00:46:51.622Z,84.50
2024-04-30T00:49:19.906Z,84.35
2024-04-30T00:51:48.688Z,85.38
2024-04-30T00:54:17.984Z,84.39
2024-04-30T00:56:46.772Z,85.62
2024-04-30T00:59:14.841Z,87.17
2024-04-30T01:01:42.863Z,85.47
2024-04-30T01:04:11.237Z,85.24
2024-04-30T01:06:39.360Z,85.29
2024-04-30T01:09:07.332Z,85.49
2024-04-30T01:11:35.437Z,85.59
2024-04-30T01:14:03.578Z,88.01
2024-04-30T01:16:31.796Z,88.16
2024-04-30T01:19:00.239Z,88.66
2024-04-30T01:21:28.308Z,90.68
2024-04-30T01:23:56.893Z,90.23
2024-04-30T01:26:24.957Z,89.24
2024-04-30T01:28:53.240Z,88.69
2024-04-30T01:31:22.011Z,89.97
2024-04-30T01:33:50.294Z,89.58
2024-04-30T01:36:19.053Z,88.44
2024-04-30T01:38:47.056Z,89.73
2024-04-30T01:41:15.125Z,89.70
2024-04-30T01:43:43.140Z,89.66
2024-04-30T01:46:11.286Z,88.60
2024-04-30T01:48:42.079Z,88.65
2024-04-30T01:51:10.167Z,90.47
2024-04-30T01:53:43.157Z,89.78
2024-04-30T01:56:11.636Z,89.38
2024-04-30T01:58:39.842Z,88.83
2024-04-30T02:01:08.023Z,90.72
2024-04-30T02:03:36.172Z,90.10
2024-04-30T02:06:04.807Z,90.83
2024-04-30T02:08:32.814Z,89.83
2024-04-30T02:11:00.895Z,90.08
2024-04-30T02:13:29.110Z,90.01
2024-04-30T02:15:57.970Z,89.05
2024-04-30T02:18:26.023Z,89.03
2024-04-30T02:20:53.995Z,88.95
2024-04-30T02:23:22.075Z,88.44
2024-04-30T02:25:50.149Z,88.78
2024-04-30T02:28:18.250Z,88.75
2024-04-30T02:31:04.730Z,89.51
2024-04-30T02:33:51.514Z,89.58
2024-04-30T02:36:19.588Z,90.67
2024-04-30T02:38:47.860Z,91.36
2024-04-30T02:41:16.239Z,88.71
2024-04-30T02:43:44.211Z,89.25
2024-04-30T02:46:12.237Z,91.00
2024-04-30T02:48:40.355Z,92.70
2024-04-30T02:51:08.428Z,92.23
2024-04-30T02:53:36.598Z,91.44
2024-04-30T02:56:05.233Z,91.32
2024-04-30T02:58:33.310Z,90.66
2024-04-30T03:01:01.497Z,90.81
2024-04-30T03:03:31.116Z,89.75
2024-04-30T03:06:01.858Z,91.14
2024-04-30T03:08:29.789Z,92.13
2024-04-30T03:10:57.716Z,90.98
2024-04-30T03:13:25.886Z,90.30
2024-04-30T03:15:53.849Z,89.46
2024-04-30T03:18:21.877Z,90.27
2024-04-30T03:20:50.093Z,91.20
2024-04-30T03:23:18.478Z,88.89
2024-04-30T03:25:47.153Z,87.48
2024-04-30T03:28:15.258Z,84.96
2024-04-30T03:30:43.399Z,83.66
2024-04-30T03:33:11.691Z,83.12
2024-04-30T03:35:40.022Z,79.49
2024-04-30T03:38:08.221Z,78.45
2024-04-30T03:40:36.332Z,74.66
2024-04-30T03:43:06.217Z,71.53
2024-04-30T03:45:34.889Z,69.88
2024-04-30T03:48:03.710Z,71.02
2024-04-30T03:50:33.387Z,67.41
2024-04-30T03:53:01.844Z,63.90
2024-04-30T03:55:29.814Z,64.55
2024-04-30T03:57:58.401Z,62.58
2024-04-30T04:00:26.492Z,60.73
2024-04-30T04:02:54.507Z,57.53
2024-04-30T04:05:23.062Z,56.44
2024-04-30T04:07:51.634Z,54.57
2024-04-30T04:10:19.960Z,53.51
2024-04-30T04:13:07.341Z,53.22
2024-04-30T04:15:35.328Z,51.00
2024-04-30T04:18:03.501Z,49.65
2024-04-30T04:20:31.525Z,51.22
2024-04-30T04:22:59.925Z,49.37
2024-04-30T04:25:28.697Z,47.76
2024-04-30T04:27:57.039Z,47.10
2024-04-30T04:30:25.161Z,46.48
2024-04-30T04:32:53.376Z,45.55
2024-04-30T04:35:21.922Z,43.07
2024-04-30T04:37:50.034Z,41.94
2024-04-30T04:40:18.380Z,40.53
2024-04-30T04:42:46.337Z,40.61
2024-04-30T04:45:14.303Z,41.48
2024-04-30T04:47:42.528Z,39.45
2024-04-30T04:50:10.756Z,38.90
2024-04-30T04:52:39.371Z,38.58
2024-04-30T04:55:07.645Z,37.81
2024-04-30T04:57:35.888Z,37.24
2024-04-30T05:00:05.604Z,36.16
2024-04-30T05:02:33.685Z,35.56
2024-04-30T05:05:01.830Z,35.10
2024-04-30T05:07:30.354Z,35.84
2024-04-30T05:09:58.389Z,34.86
2024-04-30T05:12:26.464Z,34.50
2024-04-30T05:14:55.881Z,33.61
2024-04-30T05:17:24.093Z,33.69
2024-04-30T05:19:52.312Z,33.46
2024-04-30T05:22:20.515Z,33.04
2024-04-30T05:24:48.678Z,32.40
2024-04-30T05:27:16.936Z,32.90
2024-04-30T05:29:45.010Z,32.81
2024-04-30T05:32:12.973Z,31.76
2024-04-30T05:34:41.106Z,31.62
2024-04-30T05:37:09.141Z,31.26
2024-04-30T05:39:37.185Z,30.56
2024-04-30T05:42:05.564Z,31.13
2024-04-30T05:44:33.644Z,30.59
2024-04-30T05:47:01.919Z,29.29
2024-04-30T05:49:30.435Z,28.41
2024-04-30T05:51:58.666Z,28.37
2024-04-30T05:54:26.752Z,27.84
2024-04-30T05:56:55.018Z,27.95
2024-04-30T05:59:23.086Z,28.66
2024-04-30T06:01:51.131Z,29.19
2024-04-30T06:04:19.358Z,28.70
2024-04-30T06:06:47.609Z,28.73
2024-04-30T06:09:16.719Z,28.80
2024-04-30T06:11:44.875Z,28.24
2024-04-30T06:14:12.950Z,27.27
2024-04-30T06:16:41.170Z,26.37
2024-04-30T06:19:09.325Z,25.39
2024-04-30T06:21:39.147Z,25.88
2024-04-30T06:24:08.154Z,25.30
2024-04-30T06:26:36.276Z,25.22
2024-04-30T06:29:04.346Z,25.08
2024-04-30T06:31:32.685Z,24.30
2024-04-30T06:34:00.943Z,24.48
2024-04-30T06:36:30.007Z,26.49
2024-04-30T06:38:58.067Z,28.17
2024-04-30T06:41:26.242Z,28.97
2024-04-30T06:43:54.306Z,27.30
2024-04-30T06:46:22.382Z,28.82
2024-04-30T06:48:50.499Z,30.67
2024-04-30T06:51:18.939Z,30.40
2024-04-30T06:53:47.000Z,31.01
2024-04-30T06:56:15.065Z,31.60
2024-04-30T06:58:43.711Z,32.64
2024-04-30T07:01:11.699Z,33.47
2024-04-30T07:03:40.211Z,34.33
2024-04-30T07:06:08.379Z,33.97
2024-04-30T07:08:36.475Z,34.44
2024-04-30T07:11:05.209Z,34.56
2024-04-30T07:13:34.509Z,34.53
2024-04-30T07:16:03.736Z,34.88
2024-04-30T07:18:32.240Z,34.79
2024-04-30T07:21:02.070Z,35.27
2024-04-30T07:23:31.960Z,35.44
2024-04-30T07:26:00.355Z,35.41
2024-04-30T07:28:28.686Z,35.71
2024-04-30T07:30:57.103Z,36.17
2024-04-30T07:33:25.199Z,35.00
2024-04-30T07:35:53.730Z,35.23
2024-04-30T07:38:21.795Z,35.17
2024-04-30T07:40:49.903Z,35.79
2024-04-30T07:43:17.963Z,36.58
2024-04-30T07:45:46.110Z,37.12
2024-04-30T07:48:14.182Z,35.71
2024-04-30T07:50:42.563Z,35.43
2024-04-30T07:53:10.843Z,36.23
2024-04-30T07:55:38.904Z,34.92
2024-04-30T07:58:07.108Z,34.65
2024-04-30T08:00:35.308Z,34.68
2024-04-30T08:03:03.917Z,34.71
2024-04-30T08:05:42.001Z,34.69
2024-04-30T08:08:18.032Z,36.31
2024-04-30T08:10:47.763Z,34.93
2024-04-30T08:13:15.900Z,35.69
2024-04-30T08:15:43.871Z,36.45
2024-04-30T08:18:12.332Z,36.41
2024-04-30T08:20:40.413Z,36.46
2024-04-30T08:23:08.379Z,35.80
2024-04-30T08:25:37.147Z,34.86
2024-04-30T08:28:08.930Z,34.50
2024-04-30T08:30:36.994Z,34.60
2024-04-30T08:33:05.836Z,35.22
2024-04-30T08:35:34.062Z,35.38
2024-04-30T08:38:03.407Z,34.81
2024-04-30T08:40:31.644Z,35.12
2024-04-30T08:43:00.626Z,36.59
2024-04-30T08:45:29.010Z,35.79
2024-04-30T08:48:00.446Z,35.16
2024-04-30T08:50:31.486Z,35.39
2024-04-30T08:53:00.668Z,35.17
2024-04-30T08:55:29.804Z,35.64
2024-04-30T08:57:58.068Z,35.46
2024-04-30T09:00:26.042Z,35.38
2024-04-30T09:03:02.415Z,35.27
2024-04-30T09:05:33.805Z,34.84
2024-04-30T09:08:03.432Z,34.14
2024-04-30T09:10:31.694Z,34.23
2024-04-30T09:13:00.624Z,33.83
2024-04-30T09:15:28.792Z,33.49
2024-04-30T09:18:10.202Z,33.52
2024-04-30T09:20:45.560Z,33.50
2024-04-30T09:23:13.692Z,33.31
2024-04-30T09:25:41.864Z,33.44
2024-04-30T09:28:16.031Z,32.71
2024-04-30T09:30:54.485Z,33.62
2024-04-30T09:33:23.464Z,33.23
2024-04-30T09:36:07.489Z,32.61
2024-04-30T09:38:38.268Z,31.82
2024-04-30T09:41:11.030Z,31.89
2024-04-30T09:43:40.250Z,32.55
2024-04-30T09:46:11.904Z,32.82
2024-04-30T09:48:42.911Z,33.74
2024-04-30T09:51:14.289Z,33.67
2024-04-30T09:53:47.233Z,33.23
2024-04-30T09:56:17.520Z,33.24
2024-04-30T09:58:45.652Z,32.62
2024-04-30T10:01:16.623Z,32.16
2024-04-30T10:03:45.872Z,32.66
2024-04-30T10:06:17.585Z,32.24
2024-04-30T10:08:45.842Z,33.11
2024-04-30T10:11:14.286Z,32.82
2024-04-30T10:13:52.811Z,32.81
2024-04-30T10:16:22.559Z,32.55
2024-04-30T10:19:02.932Z,32.88
2024-04-30T10:21:35.856Z,32.82
2024-04-30T10:24:17.086Z,31.83
2024-04-30T10:26:46.845Z,31.50
2024-04-30T10:29:15.769Z,31.28
2024-04-30T10:31:46.843Z,31.22
2024-04-30T10:34:15.947Z,32.29
2024-04-30T10:36:48.427Z,32.13
2024-04-30T10:39:26.921Z,31.16
2024-04-30T10:41:55.334Z,30.84
2024-04-30T10:44:23.676Z,30.41
2024-04-30T10:46:51.888Z,31.05
2024-04-30T10:49:22.073Z,30.89
2024-04-30T10:51:51.667Z,30.17
2024-04-30T10:54:20.150Z,30.47
2024-04-30T10:56:48.218Z,30.28
2024-04-30T10:59:26.278Z,29.93
2024-04-30T11:02:00.761Z,30.66
2024-04-30T11:04:33.165Z,30.54
2024-04-30T11:07:01.379Z,30.94
2024-04-30T11:09:29.665Z,31.52
2024-04-30T11:12:02.461Z,31.82
2024-04-30T11:14:43.858Z,31.42
2024-04-30T11:17:13.138Z,31.53
2024-04-30T11:19:44.709Z,32.01
2024-04-30T11:22:14.002Z,31.55
2024-04-30T11:24:42.454Z,31.10
2024-04-30T11:27:10.936Z,30.95
2024-04-30T11:29:40.496Z,31.12
2024-04-30T11:32:10.351Z,31.12
2024-04-30T11:34:38.723Z,30.99
2024-04-30T11:37:07.150Z,31.01
2024-04-30T11:39:35.350Z,30.78
2024-04-30T11:42:13.775Z,31.03
2024-04-30T11:44:49.241Z,31.58
2024-04-30T11:47:17.584Z,32.40
2024-04-30T11:49:45.837Z,31.92
2024-04-30T11:52:14.231Z,31.73
2024-04-30T11:54:42.355Z,31.55
2024-04-30T11:57:10.332Z,31.75
2024-04-30T11:59:38.696Z,32.51
2024-04-30T12:02:06.991Z,31.73
2024-04-30T12:04:35.559Z,32.27
2024-04-30T12:07:04.336Z,31.84
2024-04-30T12:09:32.317Z,32.24
2024-04-30T12:12:00.279Z,32.14
2024-04-30T12:14:28.565Z,32.23
2024-04-30T12:16:57.053Z,30.95
2024-04-30T12:19:25.432Z,30.71
2024-04-30T12:21:53.381Z,31.09
2024-04-30T12:24:21.549Z,31.18
2024-04-30T12:26:49.730Z,30.55
2024-04-30T12:29:18.225Z,29.97
2024-04-30T12:31:46.316Z,29.38
2024-04-30T12:34:14.464Z,29.27
2024-04-30T12:36:43.666Z,29.94
2024-04-30T12:39:11.930Z,29.88
2024-04-30T12:41:40.414Z,30.04
2024-04-30T12:44:10.205Z,30.26
2024-04-30T12:46:38.710Z,30.22
2024-04-30T12:49:06.935Z,30.37
2024-04-30T12:51:35.182Z,29.77
2024-04-30T12:54:03.631Z,30.29
2024-04-30T12:56:31.597Z,30.84
2024-04-30T12:59:02.403Z,31.22
2024-04-30T13:01:30.428Z,30.70
2024-04-30T13:03:58.678Z,31.01
2024-04-30T13:06:26.878Z,31.13
2024-04-30T13:08:55.446Z,30.59
2024-04-30T13:11:23.644Z,30.71
2024-04-30T13:13:51.721Z,31.30
2024-04-30T13:16:19.859Z,32.08
2024-04-30T13:18:48.474Z,31.81
2024-04-30T13:21:16.715Z,32.03
2024-04-30T13:23:44.787Z,32.00
2024-04-30T13:26:13.790Z,31.45
2024-04-30T13:28:41.890Z,31.59
2024-04-30T13:31:10.345Z,31.72
2024-04-30T13:33:38.819Z,31.64
2024-04-30T13:36:09.849Z,32.10
2024-04-30T13:38:38.133Z,32.45
2024-04-30T13:41:06.196Z,32.81
2024-04-30T13:43:38.595Z,31.79
2024-04-30T13:46:07.114Z,31.47
2024-04-30T13:48:36.594Z,31.31
2024-04-30T13:51:05.251Z,31.15
2024-04-30T13:53:39.676Z,31.35
2024-04-30T13:56:14.597Z,31.68
2024-04-30T13:58:43.258Z,31.87
2024-04-30T14:01:15.811Z,32.19
2024-04-30T14:03:44.575Z,32.36
2024-04-30T14:06:15.700Z,32.52
2024-04-30T14:08:43.759Z,32.70
2024-04-30T14:11:12.165Z,32.19
2024-04-30T14:13:40.530Z,32.46
2024-04-30T14:16:08.740Z,31.57
2024-04-30T14:18:36.930Z,31.79
2024-04-30T14:21:06.805Z,31.96
2024-04-30T14:23:35.357Z,32.85
2024-04-30T14:26:06.623Z,32.94
2024-04-30T14:28:38.021Z,32.89
2024-04-30T14:31:07.503Z,33.04
2024-04-30T14:33:36.487Z,33.25
2024-04-30T14:36:23.573Z,33.24
2024-04-30T14:38:51.740Z,32.99
2024-04-30T14:41:19.912Z,32.29
2024-04-30T14:43:47.928Z,32.17
2024-04-30T14:46:16.171Z,32.99
2024-04-30T14:48:44.236Z,33.11
2024-04-30T14:51:12.308Z,33.32
2024-04-30T14:53:40.367Z,33.28
2024-04-30T14:56:12.201Z,33.30
2024-04-30T14:58:41.251Z,32.88
2024-04-30T15:01:10.451Z,33.08
2024-04-30T15:03:39.744Z,32.81
2024-04-30T15:06:08.404Z,32.79
2024-04-30T15:08:40.895Z,33.08
2024-04-30T15:11:21.750Z,33.30
2024-04-30T15:13:50.386Z,33.55
2024-04-30T15:16:21.198Z,33.43
2024-04-30T15:18:49.659Z,33.15
2024-04-30T15:21:17.932Z,33.23
2024-04-30T15:23:46.207Z,33.21
2024-04-30T15:26:15.725Z,32.17
2024-04-30T15:28:44.138Z,32.03
2024-04-30T15:31:21.808Z,32.14
2024-04-30T15:33:50.060Z,32.19
2024-04-30T15:36:18.336Z,32.34
2024-04-30T15:38:46.789Z,32.24
2024-04-30T15:41:24.535Z,31.96
2024-04-30T15:43:52.897Z,32.13
2024-04-30T15:46:21.073Z,32.26
2024-04-30T15:48:51.126Z,32.31
2024-04-30T15:51:19.761Z,33.17
2024-04-30T15:53:47.732Z,33.13
2024-04-30T15:56:18.004Z,33.14
2024-04-30T15:58:48.714Z,33.14
2024-04-30T16:01:17.061Z,33.23
2024-04-30T16:03:45.391Z,33.43
2024-04-30T16:06:14.693Z,33.59
2024-04-30T16:08:42.720Z,34.09
2024-04-30T16:11:12.167Z,33.77
2024-04-30T16:13:43.711Z,33.85
2024-04-30T16:16:17.763Z,33.73
2024-04-30T16:18:48.342Z,33.71
2024-04-30T16:21:17.250Z,33.82
2024-04-30T16:23:45.590Z,34.15
2024-04-30T16:26:13.752Z,34.43
2024-04-30T16:28:43.162Z,34.72
2024-04-30T16:31:12.052Z,34.82
2024-04-30T16:33:40.989Z,35.20
2024-04-30T16:36:09.514Z,35.73
2024-04-30T16:38:38.405Z,36.36
2024-04-30T16:41:07.657Z,36.24
2024-04-30T16:43:35.978Z,36.44
2024-04-30T16:46:04.877Z,37.09
2024-04-30T16:48:37.121Z,37.23
2024-04-30T16:51:06.445Z,37.40
2024-04-30T16:53:34.511Z,37.53
2024-04-30T16:56:03.606Z,37.97
2024-04-30T16:58:31.691Z,38.05
2024-04-30T17:01:00.653Z,38.87
2024-04-30T17:03:29.087Z,39.79
2024-04-30T17:05:57.322Z,41.15
2024-04-30T17:08:25.704Z,42.70
2024-04-30T17:10:53.672Z,42.35
2024-04-30T17:13:21.741Z,43.26
2024-04-30T17:15:49.954Z,44.31
2024-04-30T17:18:19.646Z,44.60
2024-04-30T17:20:47.899Z,45.48
2024-04-30T17:23:15.780Z,46.20
2024-04-30T17:25:44.092Z,46.70
2024-04-30T17:28:12.327Z,46.88
2024-04-30T17:30:40.502Z,48.25
2024-04-30T17:33:08.651Z,48.41
2024-04-30T17:35:36.739Z,48.81
2024-04-30T17:38:08.071Z,49.77
2024-04-30T17:40:36.139Z,51.14
2024-04-30T17:43:04.400Z,51.01
2024-04-30T17:45:32.644Z,51.41
2024-04-30T17:48:00.887Z,51.11
2024-04-30T17:50:29.159Z,50.72
2024-04-30T17:52:57.234Z,52.74
2024-04-30T17:55:25.299Z,52.49
2024-04-30T17:57:53.420Z,53.40
2024-04-30T18:00:21.631Z,53.51
2024-04-30T18:02:50.043Z,54.81
2024-04-30T18:05:18.360Z,53.79
2024-04-30T18:07:46.482Z,53.24
2024-04-30T18:10:15.877Z,54.21
2024-04-30T18:12:46.130Z,54.88
2024-04-30T18:15:16.423Z,55.27
2024-04-30T18:17:45.050Z,55.99
2024-04-30T18:20:13.174Z,56.09
2024-04-30T18:22:41.560Z,55.14
2024-04-30T18:25:09.625Z,56.98
2024-04-30T18:27:37.809Z,56.01
2024-04-30T18:30:06.259Z,56.86
2024-04-30T18:32:34.295Z,56.34
2024-04-30T18:35:02.319Z,56.32
2024-04-30T18:37:30.295Z,57.64
2024-04-30T18:39:58.376Z,58.41
2024-04-30T18:42:28.226Z,57.57
2024-04-30T18:44:56.256Z,57.82
2024-04-30T18:47:24.337Z,63.41
2024-04-30T18:49:52.395Z,62.07
2024-04-30T18:52:20.387Z,63.15
2024-04-30T18:54:48.416Z,63.03
2024-04-30T18:57:16.819Z,61.42
2024-04-30T18:59:44.772Z,61.52
2024-04-30T19:02:12.821Z,62.26
2024-04-30T19:04:44.005Z,61.17
2024-04-30T19:07:12.366Z,61.54
2024-04-30T19:09:40.452Z,61.12
2024-04-30T19:12:09.044Z,62.28
2024-04-30T19:14:37.408Z,64.02
2024-04-30T19:17:06.082Z,64.31
2024-04-30T19:19:34.299Z,63.03
2024-04-30T19:22:02.275Z,63.69
2024-04-30T19:24:30.305Z,64.38
2024-04-30T19:26:58.269Z,63.67
2024-04-30T19:29:30.012Z,64.35
2024-04-30T19:31:58.204Z,64.30
2024-04-30T19:34:26.189Z,65.44
2024-04-30T19:36:54.323Z,64.14
2024-04-30T19:39:22.643Z,66.58
2024-04-30T19:41:50.787Z,67.02
2024-04-30T19:44:19.168Z,66.87
2024-04-30T19:46:47.436Z,66.35
2024-04-30T19:49:15.660Z,66.41
2024-04-30T19:51:43.831Z,67.60
2024-04-30T19:54:11.764Z,69.65
2024-04-30T19:56:39.834Z,69.07
2024-04-30T19:59:08.010Z,70.71
2024-04-30T20:01:36.202Z,69.08
2024-04-30T20:04:04.382Z,69.47
2024-04-30T20:06:32.570Z,72.87
2024-04-30T20:09:05.386Z,71.30
2024-04-30T20:11:35.929Z,71.58
2024-04-30T20:14:05.336Z,74.15
2024-04-30T20:16:33.292Z,74.13
2024-04-30T20:19:01.286Z,72.04
2024-04-30T20:21:29.782Z,70.80
2024-04-30T20:23:57.820Z,71.81
2024-04-30T20:26:25.893Z,73.39
2024-04-30T20:28:54.176Z,72.33
2024-04-30T20:31:22.254Z,72.89
2024-04-30T20:33:50.706Z,71.84
2024-04-30T20:36:20.068Z,72.93
2024-04-30T20:38:48.506Z,73.05
2024-04-30T20:41:16.795Z,72.56
2024-04-30T20:43:44.869Z,72.57
2024-04-30T20:46:12.928Z,72.89
2024-04-30T20:48:43.551Z,73.16
2024-04-30T20:51:12.132Z,74.08
2024-04-30T20:53:47.097Z,75.37
2024-04-30T20:56:15.443Z,75.60
2024-04-30T20:58:43.619Z,74.80
2024-04-30T21:01:18.385Z,74.95
2024-04-30T21:03:47.451Z,75.75
2024-04-30T21:06:15.585Z,74.82
2024-04-30T21:08:43.698Z,75.59
2024-04-30T21:11:14.374Z,75.14
2024-04-30T21:13:43.374Z,76.37
2024-04-30T21:16:12.130Z,75.46
2024-04-30T21:18:41.456Z,74.98
2024-04-30T21:21:09.676Z,74.70
2024-04-30T21:23:39.737Z,74.77
2024-04-30T21:26:09.504Z,76.14
2024-04-30T21:28:38.458Z,75.64
2024-04-30T21:31:06.641Z,75.68
2024-04-30T21:33:35.508Z,75.79
2024-04-30T21:36:07.823Z,75.34
2024-04-30T21:38:36.309Z,76.75
2024-04-30T21:41:04.691Z,76.43
2024-04-30T21:43:32.872Z,79.81
2024-04-30T21:46:00.970Z,77.94
2024-04-30T21:48:29.266Z,78.89
2024-04-30T21:50:57.584Z,78.60
2024-04-30T21:53:25.606Z,79.38
2024-04-30T21:55:53.626Z,81.58
2024-04-30T21:58:21.799Z,79.36
2024-04-30T22:00:50.006Z,78.80
2024-04-30T22:03:18.328Z,77.44
2024-04-30T22:05:46.723Z,81.87
2024-04-30T22:08:14.794Z,80.07
2024-04-30T22:10:43.064Z,79.10
2024-04-30T22:13:11.049Z,81.70
2024-04-30T22:15:39.119Z,79.33
2024-04-30T22:18:07.758Z,81.64
2024-04-30T22:20:35.870Z,83.46
2024-04-30T22:23:04.039Z,82.95
2024-04-30T22:25:32.318Z,81.43
2024-04-30T22:28:00.386Z,80.89
2024-04-30T22:30:28.601Z,81.00
2024-04-30T22:32:56.940Z,81.50
2024-04-30T22:35:25.423Z,82.86
2024-04-30T22:37:53.395Z,81.89
2024-04-30T22:40:21.776Z,82.04
2024-04-30T22:42:49.784Z,81.31
2024-04-30T22:45:18.004Z,82.79
2024-04-30T22:47:46.156Z,83.40
2024-04-30T22:50:14.570Z,83.25
2024-04-30T22:52:42.538Z,82.76
2024-04-30T22:55:10.607Z,83.25
2024-04-30T22:57:38.814Z,82.46
2024-04-30T23:00:07.796Z,82.40
2024-04-30T23:02:36.048Z,82.97
2024-04-30T23:05:09.937Z,83.15
2024-04-30T23:07:38.639Z,82.55
2024-04-30T23:10:07.488Z,81.72
2024-04-30T23:12:35.737Z,81.44
2024-04-30T23:15:04.390Z,81.31
2024-04-30T23:17:33.986Z,81.71
2024-04-30T23:20:02.181Z,81.89
2024-04-30T23:22:30.138Z,82.05
2024-04-30T23:24:58.314Z,82.29
2024-04-30T23:27:26.624Z,83.04
2024-04-30T23:29:55.168Z,85.93
2024-04-30T23:32:23.765Z,85.05
2024-04-30T23:34:51.827Z,85.88
2024-04-30T23:37:19.898Z,84.80
2024-04-30T23:39:48.126Z,85.38
2024-04-30T23:42:22.574Z,84.95
2024-04-30T23:44:51.695Z,85.79
2024-04-30T23:47:19.765Z,86.11
2024-04-30T23:49:47.939Z,86.96
2024-04-30T23:52:16.105Z,86.33
2024-04-30T23:54:44.145Z,86.70
2024-04-30T23:57:12.474Z,89.06
2024-04-30T23:59:40.827Z,88.82
